Time;durP1;ratioP1;P1;durP2;ratioP2;P2;SDS_P1;SDS_P2;PMS_P1;PMS_P2;Temp;Humidity;BMP_temperature;BMP_pressure;BME280_temperature;BME280_humidity;BME280_pressure;Samples;Min_cycle;Max_cycle;Signal;HPM_P1;HPM_P2
2022/01/11 00:01:43;;;;;;;21.35;10.13;;;;;;;2.99;53.21;100495.53;4441587;32;34171;-65
2022/01/11 00:04:15;;;;;;;35.58;15.30;;;;;;;2.61;53.70;100498.22;4415441;32;34289;-65
2022/01/11 00:06:49;;;;;;;23.42;9.63;;;;;;;2.46;54.18;100496.12;4434452;32;33904;-65
2022/01/11 00:09:40;;;;;;;20.30;9.63;;;;;;;0.91;59.26;100498.28;4437663;32;33418;-65
2022/01/11 00:12:10;;;;;;;21.58;9.45;;;;;;;1.87;56.49;100504.47;4436714;32;34006;-65
2022/01/11 00:14:38;;;;;;;22.17;9.60;;;;;;;1.46;57.51;100509.25;4434407;32;32672;-65
2022/01/11 00:17:08;;;;;;;26.30;11.45;;;;;;;2.15;55.59;100508.75;4434651;32;33653;-65
2022/01/11 00:19:35;;;;;;;20.30;8.77;;;;;;;1.95;55.96;100508.59;4436090;32;32039;-65
2022/01/11 00:22:07;;;;;;;20.55;8.68;;;;;;;1.14;58.49;100514.81;4441787;32;34566;-65
2022/01/11 00:24:36;;;;;;;21.35;10.27;;;;;;;0.94;59.05;100510.41;4436922;32;33078;-65
2022/01/11 00:27:07;;;;;;;21.17;9.13;;;;;;;1.65;56.82;100520.41;4430876;32;34757;-65
2022/01/11 00:29:39;;;;;;;23.12;9.98;;;;;;;1.90;56.14;100515.88;4420111;32;33711;-65
2022/01/11 00:32:13;;;;;;;20.27;9.48;;;;;;;1.90;55.36;100520.09;4432387;32;34496;-65
2022/01/11 00:34:52;;;;;;;21.65;8.60;;;;;;;1.40;56.72;100532.56;4436542;32;34029;-65
2022/01/11 00:37:21;;;;;;;25.12;11.30;;;;;;;1.83;55.56;100530.50;4435195;32;34051;-65
2022/01/11 00:39:52;;;;;;;15.77;8.18;;;;;;;1.82;55.68;100542.37;4423571;32;33664;-65
2022/01/11 00:42:22;;;;;;;18.65;8.70;;;;;;;0.65;59.38;100540.81;4435727;32;33786;-65
2022/01/11 00:44:50;;;;;;;23.42;10.50;;;;;;;1.75;56.65;100542.56;4438858;32;33793;-65
2022/01/11 00:47:17;;;;;;;18.08;9.43;;;;;;;1.05;57.51;100547.16;4435855;32;33606;-65
2022/01/11 00:49:45;;;;;;;18.77;8.65;;;;;;;0.52;59.37;100560.03;4435012;32;33492;-65
2022/01/11 00:52:14;;;;;;;20.05;9.38;;;;;;;1.26;57.88;100554.25;4434911;32;33690;-65
2022/01/11 00:54:42;;;;;;;22.95;9.80;;;;;;;0.68;59.08;100551.31;4442068;32;34056;-65
2022/01/11 00:57:11;;;;;;;23.15;11.25;;;;;;;0.87;58.84;100562.50;4434265;32;34716;-65
2022/01/11 00:59:38;;;;;;;24.55;12.20;;;;;;;1.43;56.98;100562.56;4426525;32;33377;-65
2022/01/11 01:02:06;;;;;;;22.70;9.35;;;;;;;1.59;56.74;100558.16;4437617;32;33689;-65
2022/01/11 01:04:35;;;;;;;21.92;9.90;;;;;;;1.81;55.48;100567.78;4436882;32;33656;-65
2022/01/11 01:07:03;;;;;;;20.12;9.43;;;;;;;2.58;53.16;100561.91;4424129;32;34420;-65
2022/01/11 01:09:40;;;;;;;20.98;10.00;;;;;;;2.52;52.61;100560.59;4433178;32;33287;-65
2022/01/11 01:12:09;;;;;;;25.40;10.40;;;;;;;2.30;53.56;100574.78;4429102;32;33607;-65
2022/01/11 01:14:38;;;;;;;21.62;8.80;;;;;;;2.36;53.26;100568.56;4436367;32;34795;-65
2022/01/11 01:17:06;;;;;;;16.67;7.45;;;;;;;1.96;53.15;100569.19;4422901;32;34168;-65
2022/01/11 01:19:34;;;;;;;19.95;7.47;;;;;;;1.58;54.85;100576.75;4437852;32;33394;-65
2022/01/11 01:22:02;;;;;;;17.60;7.70;;;;;;;0.69;57.26;100578.59;4437318;32;33965;-66
2022/01/11 01:24:30;;;;;;;17.83;7.95;;;;;;;1.00;56.30;100581.53;4437476;32;33809;-65
2022/01/11 01:26:59;;;;;;;19.00;9.00;;;;;;;1.98;53.44;100575.31;4437187;32;33819;-65
2022/01/11 01:29:27;;;;;;;17.55;8.13;;;;;;;1.17;56.02;100586.56;4436852;32;33033;-65
2022/01/11 01:31:55;;;;;;;20.37;8.90;;;;;;;1.84;54.77;100584.28;4431834;32;34193;-65
2022/01/11 01:34:23;;;;;;;18.60;8.52;;;;;;;2.32;53.38;100593.72;4439376;32;34660;-65
2022/01/11 01:36:51;;;;;;;19.08;8.95;;;;;;;2.43;53.33;100593.00;4439768;32;34042;-65
2022/01/11 01:39:19;;;;;;;17.52;8.82;;;;;;;2.30;53.74;100585.91;4438865;32;34066;-65
2022/01/11 01:41:47;;;;;;;20.12;9.40;;;;;;;1.09;56.46;100595.16;4439532;32;34058;-65
2022/01/11 01:44:15;;;;;;;23.15;9.65;;;;;;;0.62;58.83;100591.50;4445497;32;33823;-65
2022/01/11 01:46:42;;;;;;;17.77;8.63;;;;;;;1.82;56.03;100596.03;4435890;32;32423;-65
2022/01/11 01:49:16;;;;;;;22.73;10.85;;;;;;;2.13;54.39;100584.38;4437618;32;33320;-65
2022/01/11 01:51:45;;;;;;;23.83;10.02;;;;;;;0.18;60.60;100597.53;4438071;32;33934;-65
2022/01/11 01:54:14;;;;;;;21.08;9.02;;;;;;;-0.25;61.89;100603.47;4397100;32;31706;-65
2022/01/11 01:56:43;;;;;;;21.98;9.00;;;;;;;0.33;61.54;100603.22;4438363;32;33805;-65
2022/01/11 01:59:12;;;;;;;20.40;9.20;;;;;;;0.89;59.83;100604.38;4438183;32;33265;-65
2022/01/11 02:01:45;;;;;;;20.73;9.23;;;;;;;1.75;56.77;100588.53;4423397;32;33684;-65
2022/01/11 02:04:17;;;;;;;22.95;10.57;;;;;;;1.85;56.08;100587.72;4437420;32;34698;-65
2022/01/11 02:06:46;;;;;;;31.83;12.77;;;;;;;2.04;55.36;100591.22;4438129;32;33673;-65
2022/01/11 02:09:17;;;;;;;28.23;12.75;;;;;;;2.21;55.09;100595.28;4426471;32;33798;-65
2022/01/11 02:11:48;;;;;;;33.70;14.20;;;;;;;1.99;55.38;100599.22;4436104;32;34747;-65
2022/01/11 02:14:16;;;;;;;24.35;10.35;;;;;;;2.34;54.90;100592.19;4432845;32;34764;-65
2022/01/11 02:16:44;;;;;;;25.42;10.85;;;;;;;2.46;54.27;100600.97;4436423;32;33970;-65
2022/01/11 02:19:13;;;;;;;21.83;10.57;;;;;;;1.05;58.17;100608.38;4438153;32;33167;-64
2022/01/11 02:21:41;;;;;;;23.75;10.48;;;;;;;0.50;60.28;100607.44;4435049;32;33563;-65
2022/01/11 02:24:08;;;;;;;27.98;11.15;;;;;;;-0.54;64.70;100608.16;4421766;32;33248;-65
2022/01/11 02:26:37;;;;;;;21.37;9.88;;;;;;;0.63;61.59;100604.41;4436463;32;33750;-65
2022/01/11 02:29:04;;;;;;;19.90;9.40;;;;;;;1.49;58.57;100601.47;4434503;32;34580;-65
2022/01/11 02:31:36;;;;;;;21.33;9.45;;;;;;;1.65;57.49;100604.69;4434235;32;34643;-65
2022/01/11 02:34:05;;;;;;;23.80;10.23;;;;;;;1.52;57.37;100601.72;4435722;32;34149;-65
2022/01/11 02:36:35;;;;;;;23.75;10.43;;;;;;;1.35;57.52;100606.19;4435083;32;33876;-65
2022/01/11 02:39:04;;;;;;;21.08;9.38;;;;;;;1.19;59.38;100615.69;4437919;32;33463;-65
2022/01/11 02:41:33;;;;;;;26.00;11.35;;;;;;;1.57;57.94;100611.62;4438975;32;34009;-65
2022/01/11 02:44:01;;;;;;;23.83;10.43;;;;;;;0.03;62.87;100613.84;4434556;32;33396;-65
2022/01/11 02:46:29;;;;;;;22.08;10.50;;;;;;;0.37;62.15;100614.62;4422398;32;34392;-65
2022/01/11 02:48:57;;;;;;;23.33;10.13;;;;;;;0.64;61.71;100625.69;4434410;32;33082;-65
2022/01/11 02:51:27;;;;;;;24.65;10.68;;;;;;;0.83;60.83;100620.72;4436254;32;34749;-65
2022/01/11 02:53:57;;;;;;;25.30;10.15;;;;;;;0.41;61.68;100616.72;4434920;32;34044;-65
2022/01/11 02:56:25;;;;;;;19.92;9.77;;;;;;;0.44;62.25;100617.00;4432517;32;34024;-65
2022/01/11 02:58:53;;;;;;;24.70;10.43;;;;;;;0.38;61.50;100621.50;4443059;32;34332;-65
2022/01/11 03:01:21;;;;;;;22.90;9.85;;;;;;;0.13;63.01;100614.00;4429461;32;35037;-65
2022/01/11 03:03:51;;;;;;;23.10;9.57;;;;;;;1.17;59.67;100622.28;4431666;32;34795;-65
2022/01/11 03:06:20;;;;;;;23.62;10.10;;;;;;;-0.48;64.16;100630.81;4435642;32;33848;-65
2022/01/11 03:08:48;;;;;;;24.37;11.12;;;;;;;0.51;61.97;100631.25;4431947;32;190731;-65
2022/01/11 03:11:18;;;;;;;22.37;10.35;;;;;;;0.65;61.19;100633.50;4435518;32;34006;-65
2022/01/11 03:13:47;;;;;;;23.80;11.40;;;;;;;0.97;59.72;100634.06;4437705;32;34505;-64
2022/01/11 03:16:18;;;;;;;26.60;10.73;;;;;;;1.05;59.19;100650.09;4436989;32;33639;-65
2022/01/11 03:18:46;;;;;;;23.73;10.48;;;;;;;0.41;60.56;100639.66;4437957;32;33383;-64
2022/01/11 03:21:15;;;;;;;25.55;12.25;;;;;;;-0.54;65.35;100647.97;4436539;32;33861;-65
2022/01/11 03:23:44;;;;;;;23.02;11.00;;;;;;;0.15;62.89;100657.47;4431317;32;32085;-64
2022/01/11 03:26:12;;;;;;;25.35;11.27;;;;;;;0.50;61.59;100653.31;4438704;32;33807;-65
2022/01/11 03:28:40;;;;;;;25.23;11.95;;;;;;;0.18;62.54;100645.94;4436544;32;33431;-65
2022/01/11 03:31:08;;;;;;;27.27;11.57;;;;;;;0.19;62.00;100650.28;4435361;32;33824;-65
2022/01/11 03:33:36;;;;;;;24.87;11.77;;;;;;;-0.91;66.33;100657.81;4432656;32;36110;-65
2022/01/11 03:36:04;;;;;;;24.20;11.30;;;;;;;-0.91;66.49;100659.44;4437838;32;33865;-65
2022/01/11 03:38:34;;;;;;;27.40;12.48;;;;;;;-0.75;65.94;100664.47;4436056;32;33985;-65
2022/01/11 03:41:03;;;;;;;27.83;11.90;;;;;;;-1.23;67.77;100659.56;4425281;32;33941;-65
2022/01/11 03:43:31;;;;;;;26.17;12.43;;;;;;;-0.83;66.50;100659.53;4428947;32;33761;-65
2022/01/11 03:45:59;;;;;;;25.17;11.93;;;;;;;-0.49;64.59;100662.06;4432110;32;34807;-65
2022/01/11 03:48:27;;;;;;;23.62;12.07;;;;;;;-0.20;63.96;100654.84;4435518;32;33648;-65
2022/01/11 03:50:56;;;;;;;27.90;12.35;;;;;;;-0.42;64.18;100664.50;4428402;32;33971;-65
2022/01/11 03:53:29;;;;;;;27.00;10.25;;;;;;;-0.50;64.99;100658.63;4431282;32;33933;-65
2022/01/11 03:56:10;;;;;;;22.87;11.15;;;;;;;-1.32;67.50;100673.84;4444390;32;33257;-65
2022/01/11 03:58:38;;;;;;;27.48;11.73;;;;;;;-1.41;67.45;100669.59;4440104;32;34200;-65
2022/01/11 04:01:05;;;;;;;27.15;11.45;;;;;;;-0.98;66.87;100677.37;4437109;32;34135;-65
2022/01/11 04:03:34;;;;;;;22.42;11.18;;;;;;;0.04;62.54;100679.34;4427030;32;34549;-65
2022/01/11 04:06:02;;;;;;;24.33;11.20;;;;;;;-1.30;66.75;100687.59;4435486;32;33657;-65
2022/01/11 04:08:30;;;;;;;27.50;11.77;;;;;;;-0.40;63.76;100688.47;4439256;32;34229;-65
2022/01/11 04:10:57;;;;;;;26.70;10.73;;;;;;;-0.64;64.28;100692.84;4438956;32;34748;-65
2022/01/11 04:13:25;;;;;;;27.58;12.07;;;;;;;-0.94;64.72;100685.47;4430945;32;34161;-65
2022/01/11 04:15:53;;;;;;;26.08;11.38;;;;;;;-0.94;65.22;100697.31;4428017;32;33637;-65
2022/01/11 04:18:21;;;;;;;25.45;11.00;;;;;;;-0.63;64.60;100693.75;4437011;32;33589;-65
2022/01/11 04:20:48;;;;;;;22.95;10.57;;;;;;;-0.51;62.71;100694.09;4437612;32;33912;-65
2022/01/11 04:23:16;;;;;;;23.48;10.68;;;;;;;0.24;60.70;100695.72;4422642;32;34701;-65
2022/01/11 04:25:44;;;;;;;18.73;10.48;;;;;;;0.44;59.78;100688.37;4428318;32;33804;-65
2022/01/11 04:28:12;;;;;;;28.83;10.13;;;;;;;-0.18;61.71;100695.72;4437717;32;31297;-65
2022/01/11 04:30:39;;;;;;;22.10;9.45;;;;;;;0.41;59.80;100695.72;4434468;32;35564;-65
2022/01/11 04:33:07;;;;;;;20.62;9.20;;;;;;;0.51;58.83;100695.00;4435570;32;33793;-65
2022/01/11 04:35:35;;;;;;;25.42;11.05;;;;;;;0.24;59.28;100698.25;4436675;32;34123;-65
2022/01/11 04:38:03;;;;;;;23.25;10.10;;;;;;;0.34;59.25;100706.06;4436147;32;33581;-65
2022/01/11 04:40:31;;;;;;;23.60;10.07;;;;;;;0.28;59.31;100710.56;4435280;32;33478;-65
2022/01/11 04:42:58;;;;;;;24.63;9.20;;;;;;;0.15;59.78;100714.41;4424451;32;32806;-64
2022/01/11 04:45:26;;;;;;;22.52;10.57;;;;;;;-0.10;60.54;100720.31;4437750;32;34516;-64
2022/01/11 04:47:56;;;;;;;26.05;9.73;;;;;;;-0.37;61.10;100719.31;4431291;32;33238;-64
2022/01/11 04:50:26;;;;;;;23.40;10.38;;;;;;;-0.28;61.07;100725.34;4435131;32;33703;-64
2022/01/11 04:52:54;;;;;;;23.60;10.00;;;;;;;-0.19;60.89;100738.13;4427868;32;33606;-64
2022/01/11 04:55:23;;;;;;;25.75;9.77;;;;;;;-0.39;61.40;100736.06;4436913;32;34641;-65
2022/01/11 04:57:51;;;;;;;22.67;9.63;;;;;;;-0.29;61.04;100731.19;4435857;32;33143;-65
2022/01/11 05:00:20;;;;;;;28.87;10.98;;;;;;;-0.42;61.46;100731.56;4434972;32;33831;-65
2022/01/11 05:02:48;;;;;;;22.98;10.02;;;;;;;-0.28;60.59;100744.81;4438830;32;34658;-65
2022/01/11 05:05:15;;;;;;;21.70;9.50;;;;;;;-0.25;60.07;100751.12;4438389;32;34539;-64
2022/01/11 05:07:45;;;;;;;22.75;9.93;;;;;;;-0.01;59.90;100751.81;4439628;32;33574;-65
2022/01/11 05:10:12;;;;;;;25.80;9.85;;;;;;;-0.64;61.93;100748.81;4435336;32;33817;-64
2022/01/11 05:12:41;;;;;;;29.15;11.55;;;;;;;-0.39;61.23;100756.44;4437229;32;33895;-65
2022/01/11 05:15:12;;;;;;;24.08;11.43;;;;;;;-1.06;63.06;100766.47;4431547;32;34579;-64
2022/01/11 05:17:40;;;;;;;29.45;11.52;;;;;;;-0.89;62.90;100770.81;4438795;32;34228;-65
2022/01/11 05:20:09;;;;;;;25.85;11.55;;;;;;;-1.13;64.02;100771.63;4434165;32;34735;-64
2022/01/11 05:22:38;;;;;;;25.27;10.55;;;;;;;-0.77;62.38;100771.19;4434446;32;34771;-64
2022/01/11 05:25:07;;;;;;;21.02;10.10;;;;;;;-0.69;61.85;100761.81;4424131;32;31600;-64
2022/01/11 05:27:35;;;;;;;26.92;11.05;;;;;;;-0.39;60.88;100771.72;4435179;32;33671;-64
2022/01/11 05:30:04;;;;;;;22.75;9.98;;;;;;;-0.07;59.86;100772.47;4431396;32;34517;-65
2022/01/11 05:32:32;;;;;;;17.73;8.63;;;;;;;-0.33;60.44;100772.37;4437038;32;33619;-65
2022/01/11 05:35:00;;;;;;;19.58;8.32;;;;;;;-0.53;60.48;100777.03;4437052;32;33590;-65
2022/01/11 05:37:28;;;;;;;22.48;10.10;;;;;;;-0.80;60.31;100781.91;4430257;32;34260;-65
2022/01/11 05:39:55;;;;;;;21.00;10.15;;;;;;;-0.37;59.77;100790.59;4432558;32;33907;-65
2022/01/11 05:42:24;;;;;;;22.75;9.68;;;;;;;-0.25;59.18;100794.41;4438071;32;34759;-65
2022/01/11 05:44:52;;;;;;;21.87;7.45;;;;;;;-0.38;59.12;100798.97;4438234;32;33989;-65
2022/01/11 05:47:21;;;;;;;16.48;6.72;;;;;;;-0.43;58.68;100802.69;4425010;32;34257;-64
2022/01/11 05:49:50;;;;;;;21.85;8.90;;;;;;;-0.44;57.85;100804.34;4438353;32;34024;-64
2022/01/11 05:52:18;;;;;;;18.45;8.75;;;;;;;-0.59;58.62;100812.91;4437357;32;33696;-65
2022/01/11 05:54:46;;;;;;;15.32;7.45;;;;;;;-0.65;58.60;100808.09;4438432;32;34480;-64
2022/01/11 05:57:13;;;;;;;14.18;6.53;;;;;;;-0.67;58.83;100809.56;4438128;32;33477;-65
2022/01/11 05:59:41;;;;;;;16.70;8.07;;;;;;;-0.93;59.13;100816.06;4436774;32;34450;-65
2022/01/11 06:02:09;;;;;;;16.48;6.97;;;;;;;-1.03;59.42;100817.63;4435422;32;34630;-64
2022/01/11 06:04:37;;;;;;;13.48;6.05;;;;;;;-1.02;58.94;100819.47;4437685;32;33584;-64
2022/01/11 06:07:05;;;;;;;16.80;7.20;;;;;;;-1.20;59.44;100822.56;4434217;32;34204;-65
2022/01/11 06:09:33;;;;;;;13.75;5.40;;;;;;;-1.37;59.92;100827.47;4436471;32;34011;-64
2022/01/11 06:12:01;;;;;;;15.88;5.82;;;;;;;-1.30;59.83;100840.13;4438668;32;34007;-65
2022/01/11 06:14:29;;;;;;;14.70;5.97;;;;;;;-1.37;60.23;100848.72;4445059;32;35066;-64
2022/01/11 06:16:57;;;;;;;13.98;6.78;;;;;;;-1.31;59.50;100843.41;4439063;32;33578;-64
2022/01/11 06:19:31;;;;;;;15.63;6.28;;;;;;;-1.15;59.25;100841.75;4421775;32;34398;-64
2022/01/11 06:21:59;;;;;;;20.75;6.65;;;;;;;-1.14;58.93;100843.59;4416186;32;31642;-65
2022/01/11 06:24:27;;;;;;;17.77;7.10;;;;;;;-1.09;59.01;100852.59;4441787;32;34057;-65
2022/01/11 06:26:55;;;;;;;15.68;7.00;;;;;;;-1.10;58.68;100855.88;4431666;32;33325;-65
2022/01/11 06:29:24;;;;;;;19.77;7.60;;;;;;;-1.12;58.85;100867.53;4436112;32;33934;-64
2022/01/11 06:31:51;;;;;;;21.90;7.85;;;;;;;-0.82;57.91;100866.47;4435291;32;33978;-64
2022/01/11 06:34:19;;;;;;;14.98;5.78;;;;;;;-1.23;58.78;100874.00;4438009;32;33631;-65
2022/01/11 06:36:47;;;;;;;14.98;6.22;;;;;;;-1.40;59.07;100889.94;4429924;32;33637;-65
2022/01/11 06:39:15;;;;;;;20.37;8.13;;;;;;;-1.37;59.35;100888.47;4437372;32;33764;-64
2022/01/11 06:41:43;;;;;;;16.87;6.45;;;;;;;-1.34;58.58;100898.97;4438440;32;34815;-65
2022/01/11 06:44:11;;;;;;;17.20;7.43;;;;;;;-1.00;57.48;100901.91;4430606;32;33641;-65
2022/01/11 06:46:39;;;;;;;22.33;8.18;;;;;;;-0.92;57.59;100912.00;4433690;32;33262;-64
2022/01/11 06:49:08;;;;;;;15.48;6.60;;;;;;;-0.73;56.54;100908.16;4436940;32;34460;-64
2022/01/11 06:51:36;;;;;;;15.82;6.75;;;;;;;-0.33;55.67;100899.66;4437399;32;34683;-65
2022/01/11 06:54:04;;;;;;;12.98;6.25;;;;;;;-0.45;56.25;100903.44;4434951;32;34067;-64
2022/01/11 06:56:33;;;;;;;16.00;6.25;;;;;;;-0.58;56.96;100910.50;4434740;32;33463;-64
2022/01/11 06:59:02;;;;;;;15.90;6.97;;;;;;;-0.64;57.06;100911.69;4428808;32;34673;-64
2022/01/11 07:01:30;;;;;;;14.70;5.85;;;;;;;-0.83;57.09;100918.97;4435805;32;33921;-65
2022/01/11 07:03:58;;;;;;;13.15;5.82;;;;;;;-0.79;56.79;100922.75;4436080;32;34155;-64
2022/01/11 07:06:26;;;;;;;12.60;6.20;;;;;;;-0.54;56.24;100918.66;4437199;32;33722;-65
2022/01/11 07:08:53;;;;;;;12.43;6.60;;;;;;;-0.27;55.23;100912.09;4422705;32;33696;-64
2022/01/11 07:11:23;;;;;;;12.30;5.95;;;;;;;-0.62;55.93;100929.63;4438860;32;33712;-64
2022/01/11 07:13:52;;;;;;;15.07;5.62;;;;;;;-0.53;56.03;100924.63;4431456;32;33598;-64
2022/01/11 07:16:20;;;;;;;12.37;5.55;;;;;;;-0.45;55.18;100923.81;4439015;32;34134;-63
2022/01/11 07:18:49;;;;;;;13.55;5.80;;;;;;;-0.51;55.91;100929.13;4437866;32;34584;-63
2022/01/11 07:21:17;;;;;;;20.55;9.38;;;;;;;0.02;53.94;100934.63;4435836;32;34012;-64
2022/01/11 07:23:46;;;;;;;23.73;11.07;;;;;;;-0.54;57.35;100940.62;4432732;32;34127;-64
2022/01/11 07:26:14;;;;;;;23.95;10.77;;;;;;;-1.03;59.86;100944.78;4436705;32;34268;-64
2022/01/11 07:28:42;;;;;;;27.10;10.63;;;;;;;-1.94;63.43;100949.16;4437649;32;33972;-65
2022/01/11 07:31:11;;;;;;;22.13;10.05;;;;;;;-1.67;62.44;100948.78;4422094;32;31642;-65
2022/01/11 07:33:40;;;;;;;25.52;9.73;;;;;;;-0.80;60.17;100949.81;4426957;32;34547;-65
2022/01/11 07:36:08;;;;;;;22.75;10.25;;;;;;;-0.61;58.80;100960.34;4437873;32;33246;-64
2022/01/11 07:38:36;;;;;;;19.48;8.95;;;;;;;-1.11;60.26;100965.94;4433818;32;33941;-65
2022/01/11 07:41:05;;;;;;;20.23;9.02;;;;;;;-0.52;58.33;100962.06;4431936;32;34728;-65
2022/01/11 07:43:33;;;;;;;15.73;7.00;;;;;;;0.22;56.08;100960.56;4428428;32;32513;-65
2022/01/11 07:46:02;;;;;;;15.63;7.03;;;;;;;-0.21;56.50;100962.06;4426328;32;33379;-64
2022/01/11 07:48:30;;;;;;;15.52;6.93;;;;;;;-0.04;55.61;100948.56;4432613;32;34622;-65
2022/01/11 07:50:58;;;;;;;13.73;6.30;;;;;;;-0.35;55.48;100954.56;4429765;32;31935;-65
2022/01/11 07:53:27;;;;;;;13.82;5.68;;;;;;;-0.29;54.72;100952.69;4428907;32;34257;-65
2022/01/11 07:55:58;;;;;;;13.48;5.87;;;;;;;-0.05;54.27;100958.56;4431119;32;31933;-65
2022/01/11 07:58:25;;;;;;;14.23;5.70;;;;;;;-0.24;54.73;100951.53;4430359;32;32573;-65
2022/01/11 08:00:53;;;;;;;12.88;5.28;;;;;;;-0.11;54.25;100952.84;4431642;32;33735;-65
2022/01/11 08:03:23;;;;;;;15.38;6.10;;;;;;;0.04;53.45;100954.44;4430838;32;34693;-65
2022/01/11 08:05:53;;;;;;;13.85;6.05;;;;;;;0.13;53.56;100957.94;4426583;32;32400;-65
2022/01/11 08:08:21;;;;;;;13.23;6.40;;;;;;;0.32;52.92;100952.22;4427558;32;33636;-64
2022/01/11 08:10:52;;;;;;;14.90;5.65;;;;;;;0.48;52.30;100960.69;4425892;32;33161;-65
2022/01/11 08:13:20;;;;;;;15.68;7.40;;;;;;;0.31;52.36;100961.50;4413380;32;32368;-65
2022/01/11 08:15:48;;;;;;;16.02;9.27;;;;;;;0.34;52.23;100961.81;4431487;32;33318;-65
2022/01/11 08:18:17;;;;;;;13.73;5.40;;;;;;;0.23;52.41;100957.25;4426712;32;33948;-65
2022/01/11 08:20:47;;;;;;;56.50;29.63;;;;;;;0.74;50.79;100959.94;4433212;32;33895;-65
2022/01/11 08:23:16;;;;;;;58.38;22.00;;;;;;;0.51;52.07;100976.31;4432703;32;33118;-65
2022/01/11 08:25:44;;;;;;;120.95;40.80;;;;;;;0.43;52.09;100966.09;4428600;32;33274;-65
2022/01/11 08:28:13;;;;;;;24.08;12.45;;;;;;;0.70;51.40;100968.91;4430252;32;33698;-64
2022/01/11 08:30:41;;;;;;;14.50;6.90;;;;;;;0.73;51.33;100969.19;4427786;32;34233;-65
2022/01/11 08:33:12;;;;;;;17.12;5.68;;;;;;;0.93;50.39;100971.25;4428244;32;34697;-65
2022/01/11 08:35:40;;;;;;;15.13;6.10;;;;;;;1.06;50.03;100975.03;4429081;32;32286;-65
2022/01/11 08:38:08;;;;;;;14.43;5.80;;;;;;;1.03;49.79;100969.63;4430976;32;33902;-65
2022/01/11 08:40:37;;;;;;;12.68;5.75;;;;;;;0.95;50.60;100977.41;4435797;32;34680;-65
2022/01/11 08:43:06;;;;;;;14.00;5.28;;;;;;;1.48;48.31;100992.84;4428063;32;33530;-65
2022/01/11 08:45:34;;;;;;;13.90;6.05;;;;;;;1.66;48.09;100983.56;4430866;32;33593;-65
2022/01/11 08:48:04;;;;;;;15.40;6.00;;;;;;;1.74;48.62;100990.34;4437184;32;33936;-65
2022/01/11 08:50:36;;;;;;;14.25;6.07;;;;;;;1.54;48.70;101001.12;4432518;32;35407;-64
2022/01/11 08:53:04;;;;;;;14.02;5.82;;;;;;;1.36;48.89;100998.53;4431592;32;33786;-65
2022/01/11 08:55:33;;;;;;;13.82;5.82;;;;;;;1.63;48.46;100988.38;4434362;32;34176;-65
2022/01/11 08:58:01;;;;;;;13.88;6.18;;;;;;;1.61;48.28;100980.56;4437282;32;34073;-65
2022/01/11 09:00:29;;;;;;;11.45;5.20;;;;;;;1.67;47.86;100980.28;4436379;32;33918;-65
2022/01/11 09:02:58;;;;;;;20.95;6.72;;;;;;;1.33;49.42;100977.81;4423638;32;34578;-65
2022/01/11 09:05:27;;;;;;;15.65;6.15;;;;;;;1.35;48.48;100981.44;4432849;32;33508;-65
2022/01/11 09:08:04;;;;;;;14.35;5.60;;;;;;;1.57;48.72;100993.78;4426473;32;33851;-64
2022/01/11 09:10:32;;;;;;;10.55;5.07;;;;;;;1.32;48.70;100995.53;4428475;32;33997;-65
2022/01/11 09:13:01;;;;;;;13.32;5.97;;;;;;;1.64;47.50;100980.88;4433230;32;34167;-65
2022/01/11 09:15:29;;;;;;;12.27;5.50;;;;;;;1.69;47.65;100978.75;4421213;32;34143;-65
2022/01/11 09:17:59;;;;;;;13.00;5.85;;;;;;;1.92;47.13;100989.59;4418605;32;32158;-65
2022/01/11 09:20:27;;;;;;;13.93;5.20;;;;;;;1.68;47.07;100982.97;4427541;32;33845;-65
2022/01/11 09:22:55;;;;;;;13.65;5.55;;;;;;;1.82;46.58;100986.00;4424744;32;33960;-65
2022/01/11 09:25:24;;;;;;;14.00;7.07;;;;;;;2.06;46.65;100992.59;4437431;32;32391;-66
2022/01/11 09:27:52;;;;;;;13.15;5.45;;;;;;;2.05;46.57;100981.47;4424725;32;33750;-66
2022/01/11 09:30:21;;;;;;;13.07;5.80;;;;;;;1.75;47.30;100972.59;4429912;32;34004;-65
2022/01/11 09:32:49;;;;;;;15.90;5.43;;;;;;;2.13;46.51;100985.66;4433982;32;34429;-65
2022/01/11 09:35:17;;;;;;;12.43;5.62;;;;;;;2.24;46.09;100983.22;4441601;32;32313;-65
2022/01/11 09:37:49;;;;;;;13.95;5.45;;;;;;;2.07;46.63;100982.53;4436150;32;32815;-65
2022/01/11 09:40:17;;;;;;;12.55;5.30;;;;;;;2.51;45.19;100995.22;4431238;32;35363;-65
2022/01/11 09:42:45;;;;;;;13.18;5.93;;;;;;;2.28;45.76;100985.34;4437661;32;33656;-65
2022/01/11 09:45:14;;;;;;;15.82;6.10;;;;;;;2.30;46.49;100983.84;4432296;32;33403;-65
2022/01/11 09:47:42;;;;;;;14.10;6.07;;;;;;;2.37;45.88;100986.22;4430570;32;32695;-65
2022/01/11 09:50:12;;;;;;;36.17;17.95;;;;;;;2.24;45.54;100978.12;4428137;32;33764;-65
2022/01/11 09:52:41;;;;;;;17.40;7.37;;;;;;;2.49;45.23;100992.53;4432001;32;34439;-65
2022/01/11 09:55:11;;;;;;;13.43;6.80;;;;;;;2.30;46.07;100981.28;4438579;32;33423;-65
2022/01/11 09:57:41;;;;;;;13.00;5.90;;;;;;;2.21;46.53;100973.63;4423044;32;33052;-65
2022/01/11 10:00:12;;;;;;;13.00;5.90;;;;;;;2.43;45.76;100981.69;4433157;32;33941;-65
2022/01/11 10:02:44;;;;;;;15.93;5.90;;;;;;;2.36;46.63;100987.00;4425313;32;34536;-65
2022/01/11 10:05:14;;;;;;;13.68;5.60;;;;;;;2.46;45.50;100971.78;4435951;32;33556;-65
2022/01/11 10:07:43;;;;;;;12.07;5.22;;;;;;;2.49;46.08;100973.69;4435048;32;33586;-65
2022/01/11 10:10:19;;;;;;;12.60;5.07;;;;;;;2.46;46.52;100976.88;4435871;32;34064;-65
2022/01/11 10:12:54;;;;;;;12.15;5.07;;;;;;;2.72;45.25;100979.37;4426069;32;33680;-65
2022/01/11 10:15:28;;;;;;;14.07;5.85;;;;;;;2.98;45.56;100974.91;4421863;32;33313;-65
2022/01/11 10:18:03;;;;;;;14.52;6.32;;;;;;;2.79;45.49;100975.72;4416310;32;34554;-65
2022/01/11 10:20:34;;;;;;;13.20;5.45;;;;;;;2.81;45.26;100975.87;4422818;32;36578;-65
2022/01/11 10:23:07;;;;;;;12.93;5.60;;;;;;;2.74;45.76;100976.94;4434152;32;34088;-65
2022/01/11 10:25:45;;;;;;;11.50;5.18;;;;;;;2.84;44.50;100982.19;4437802;32;33654;-66
2022/01/11 10:28:32;;;;;;;11.55;5.25;;;;;;;3.05;43.94;100977.25;4437898;32;34792;-65
2022/01/11 10:31:00;;;;;;;24.02;8.10;;;;;;;3.35;43.93;100968.97;4432475;32;33868;-65
2022/01/11 10:33:28;;;;;;;28.55;16.23;;;;;;;3.49;43.10;100980.47;4436663;32;33888;-66
2022/01/11 10:35:56;;;;;;;22.45;12.13;;;;;;;3.34;44.03;100970.62;4437781;32;34203;-66
2022/01/11 10:38:27;;;;;;;19.95;9.25;;;;;;;3.29;43.69;100979.53;4432657;32;34546;-67
2022/01/11 10:40:57;;;;;;;12.70;5.87;;;;;;;3.46;43.37;100973.41;4433577;32;34003;-64
2022/01/11 10:43:24;;;;;;;12.75;6.68;;;;;;;3.83;42.23;100970.75;4434652;32;34573;-66
2022/01/11 10:45:54;;;;;;;11.85;4.62;;;;;;;3.67;42.69;100974.47;4425677;32;34018;-65
2022/01/11 10:48:25;;;;;;;10.65;4.60;;;;;;;3.91;41.99;100972.31;4429340;32;32962;-66
2022/01/11 10:50:56;;;;;;;9.80;4.87;;;;;;;3.71;43.21;100976.56;4426121;32;32894;-66
2022/01/11 10:53:27;;;;;;;12.80;6.53;;;;;;;3.77;42.73;100977.84;4426906;32;34280;-66
2022/01/11 10:55:57;;;;;;;12.73;5.90;;;;;;;3.63;42.95;100967.28;4438012;32;33416;-65
2022/01/11 10:59:12;;;;;;;14.60;7.10;;;;;;;4.00;42.14;100978.28;4423773;32;33084;-63
2022/01/11 11:01:43;;;;;;;11.90;5.32;;;;;;;4.26;41.81;100979.69;4433478;32;33665;-67
2022/01/11 11:04:32;;;;;;;10.60;5.25;;;;;;;4.21;42.55;100975.81;4430132;32;33998;-66
2022/01/11 11:07:11;;;;;;;10.98;6.47;;;;;;;3.82;43.86;100968.94;4434882;32;33392;-66
2022/01/11 11:09:45;;;;;;;10.02;6.00;;;;;;;3.96;43.18;100968.53;4434701;32;33966;-66
2022/01/11 11:12:17;;;;;;;11.30;5.15;;;;;;;4.46;41.37;100979.81;4432331;32;33696;-66
2022/01/11 11:14:56;;;;;;;11.07;5.45;;;;;;;4.08;42.24;100972.16;4431797;32;34715;-66
2022/01/11 11:17:32;;;;;;;13.30;5.50;;;;;;;4.37;41.32;100976.41;4424437;32;33235;-66
2022/01/11 11:20:04;;;;;;;20.05;11.32;;;;;;;4.63;40.66;100976.13;4431555;32;33644;-66
2022/01/11 11:22:32;;;;;;;11.25;5.07;;;;;;;4.93;40.30;100983.00;4433150;32;34697;-65
2022/01/11 11:25:00;;;;;;;11.70;6.10;;;;;;;4.78;40.67;100974.00;4434873;32;32494;-66
2022/01/11 11:27:31;;;;;;;12.57;5.97;;;;;;;4.99;40.42;100976.63;4435099;32;33243;-65
2022/01/11 11:29:59;;;;;;;12.55;5.72;;;;;;;4.48;41.63;100978.28;4435204;32;33872;-66